sensor_id;sensor_type;location;lat;lon;timestamp;P1;durP1;ratioP1;P2;durP2;ratioP2
3573;SDS011;1801;51.050;6.246;2023-02-28T00:02:15;13.77;;;4.60;;
3573;SDS011;1801;51.050;6.246;2023-02-28T00:04:42;13.95;;;5.75;;
3573;SDS011;1801;51.050;6.246;2023-02-28T00:07:07;11.40;;;4.90;;
3573;SDS011;1801;51.050;6.246;2023-02-28T00:09:32;10.30;;;5.43;;
3573;SDS011;1801;51.050;6.246;2023-02-28T00:11:58;13.40;;;5.27;;
3573;SDS011;1801;51.050;6.246;2023-02-28T00:14:23;7.90;;;5.03;;
3573;SDS011;1801;51.050;6.246;2023-02-28T00:16:48;9.80;;;5.20;;
3573;SDS011;1801;51.050;6.246;2023-02-28T00:19:13;7.00;;;4.73;;
3573;SDS011;1801;51.050;6.246;2023-02-28T00:21:39;7.60;;;4.97;;
3573;SDS011;1801;51.050;6.246;2023-02-28T00:24:05;6.70;;;4.57;;
3573;SDS011;1801;51.050;6.246;2023-02-28T00:26:30;8.07;;;4.93;;
3573;SDS011;1801;51.050;6.246;2023-02-28T00:28:56;10.47;;;5.23;;
3573;SDS011;1801;51.050;6.246;2023-02-28T00:31:21;12.40;;;4.73;;
3573;SDS011;1801;51.050;6.246;2023-02-28T00:33:46;8.70;;;4.83;;
3573;SDS011;1801;51.050;6.246;2023-02-28T00:36:11;8.20;;;5.40;;
3573;SDS011;1801;51.050;6.246;2023-02-28T00:38:37;7.83;;;5.60;;
3573;SDS011;1801;51.050;6.246;2023-02-28T00:41:03;12.43;;;4.73;;
3573;SDS011;1801;51.050;6.246;2023-02-28T00:43:35;9.15;;;5.35;;
3573;SDS011;1801;51.050;6.246;2023-02-28T00:46:00;6.88;;;4.55;;
3573;SDS011;1801;51.050;6.246;2023-02-28T00:48:26;12.53;;;5.93;;
3573;SDS011;1801;51.050;6.246;2023-02-28T00:50:52;8.03;;;5.13;;
3573;SDS011;1801;51.050;6.246;2023-02-28T00:53:17;11.13;;;5.35;;
3573;SDS011;1801;51.050;6.246;2023-02-28T00:55:42;12.17;;;5.53;;
3573;SDS011;1801;51.050;6.246;2023-02-28T00:58:08;12.13;;;6.30;;
3573;SDS011;1801;51.050;6.246;2023-02-28T01:00:33;9.93;;;5.77;;
3573;SDS011;1801;51.050;6.246;2023-02-28T01:02:58;9.33;;;5.17;;
3573;SDS011;1801;51.050;6.246;2023-02-28T01:05:23;11.23;;;4.93;;
3573;SDS011;1801;51.050;6.246;2023-02-28T01:07:49;12.40;;;5.40;;
3573;SDS011;1801;51.050;6.246;2023-02-28T01:10:14;9.07;;;5.70;;
3573;SDS011;1801;51.050;6.246;2023-02-28T01:12:39;8.53;;;5.17;;
3573;SDS011;1801;51.050;6.246;2023-02-28T01:15:04;9.70;;;6.27;;
3573;SDS011;1801;51.050;6.246;2023-02-28T01:17:30;9.93;;;5.37;;
3573;SDS011;1801;51.050;6.246;2023-02-28T01:19:55;11.30;;;4.87;;
3573;SDS011;1801;51.050;6.246;2023-02-28T01:22:21;10.20;;;5.13;;
3573;SDS011;1801;51.050;6.246;2023-02-28T01:24:46;8.63;;;5.90;;
3573;SDS011;1801;51.050;6.246;2023-02-28T01:27:11;8.10;;;5.93;;
3573;SDS011;1801;51.050;6.246;2023-02-28T01:29:36;8.13;;;5.10;;
3573;SDS011;1801;51.050;6.246;2023-02-28T01:32:01;15.10;;;7.00;;
3573;SDS011;1801;51.050;6.246;2023-02-28T01:34:27;12.43;;;6.13;;
3573;SDS011;1801;51.050;6.246;2023-02-28T01:36:52;9.77;;;5.23;;
3573;SDS011;1801;51.050;6.246;2023-02-28T01:39:17;10.10;;;5.53;;
3573;SDS011;1801;51.050;6.246;2023-02-28T01:41:42;8.40;;;4.73;;
3573;SDS011;1801;51.050;6.246;2023-02-28T01:46:52;7.50;;;5.43;;
3573;SDS011;1801;51.050;6.246;2023-02-28T01:49:17;9.80;;;5.63;;
3573;SDS011;1801;51.050;6.246;2023-02-28T01:51:50;10.90;;;6.03;;
3573;SDS011;1801;51.050;6.246;2023-02-28T01:54:18;18.13;;;6.70;;
3573;SDS011;1801;51.050;6.246;2023-02-28T01:56:46;8.48;;;5.75;;
3573;SDS011;1801;51.050;6.246;2023-02-28T01:59:13;11.55;;;5.82;;
3573;SDS011;1801;51.050;6.246;2023-02-28T02:01:39;11.80;;;6.60;;
3573;SDS011;1801;51.050;6.246;2023-02-28T02:04:05;11.20;;;5.73;;
3573;SDS011;1801;51.050;6.246;2023-02-28T02:06:33;10.70;;;5.73;;
3573;SDS011;1801;51.050;6.246;2023-02-28T02:09:00;9.18;;;5.50;;
3573;SDS011;1801;51.050;6.246;2023-02-28T02:11:25;15.73;;;6.53;;
3573;SDS011;1801;51.050;6.246;2023-02-28T02:13:55;10.43;;;5.60;;
3573;SDS011;1801;51.050;6.246;2023-02-28T02:16:45;19.05;;;5.43;;
3573;SDS011;1801;51.050;6.246;2023-02-28T02:22:07;9.73;;;5.80;;
3573;SDS011;1801;51.050;6.246;2023-02-28T02:24:56;10.90;;;5.95;;
3573;SDS011;1801;51.050;6.246;2023-02-28T02:35:08;17.77;;;6.83;;
3573;SDS011;1801;51.050;6.246;2023-02-28T02:37:40;9.85;;;5.57;;
3573;SDS011;1801;51.050;6.246;2023-02-28T02:40:16;8.85;;;6.20;;
3573;SDS011;1801;51.050;6.246;2023-02-28T02:42:59;12.65;;;7.25;;
3573;SDS011;1801;51.050;6.246;2023-02-28T02:45:31;16.67;;;6.97;;
3573;SDS011;1801;51.050;6.246;2023-02-28T02:48:00;12.95;;;6.75;;
3573;SDS011;1801;51.050;6.246;2023-02-28T02:50:29;17.50;;;7.13;;
3573;SDS011;1801;51.050;6.246;2023-02-28T02:52:56;9.88;;;6.18;;
3573;SDS011;1801;51.050;6.246;2023-02-28T02:55:22;11.95;;;6.70;;
3573;SDS011;1801;51.050;6.246;2023-02-28T02:57:52;10.37;;;6.67;;
3573;SDS011;1801;51.050;6.246;2023-02-28T03:00:19;22.98;;;8.70;;
3573;SDS011;1801;51.050;6.246;2023-02-28T03:02:46;12.80;;;7.70;;
3573;SDS011;1801;51.050;6.246;2023-02-28T03:05:15;16.23;;;7.05;;
3573;SDS011;1801;51.050;6.246;2023-02-28T03:07:42;12.63;;;8.95;;
3573;SDS011;1801;51.050;6.246;2023-02-28T03:12:52;11.40;;;6.60;;
3573;SDS011;1801;51.050;6.246;2023-02-28T03:15:24;16.15;;;6.53;;
3573;SDS011;1801;51.050;6.246;2023-02-28T03:18:04;17.98;;;6.60;;
3573;SDS011;1801;51.050;6.246;2023-02-28T03:20:38;17.17;;;7.68;;
3573;SDS011;1801;51.050;6.246;2023-02-28T03:26:02;12.18;;;6.90;;
3573;SDS011;1801;51.050;6.246;2023-02-28T03:28:36;10.70;;;6.40;;
3573;SDS011;1801;51.050;6.246;2023-02-28T03:33:34;14.30;;;7.87;;
3573;SDS011;1801;51.050;6.246;2023-02-28T03:36:10;12.00;;;7.15;;
3573;SDS011;1801;51.050;6.246;2023-02-28T03:38:40;18.23;;;7.32;;
3573;SDS011;1801;51.050;6.246;2023-02-28T03:41:08;12.80;;;6.68;;
3573;SDS011;1801;51.050;6.246;2023-02-28T03:43:35;10.35;;;7.13;;
3573;SDS011;1801;51.050;6.246;2023-02-28T03:46:04;8.88;;;6.85;;
3573;SDS011;1801;51.050;6.246;2023-02-28T03:48:32;10.88;;;6.65;;
3573;SDS011;1801;51.050;6.246;2023-02-28T03:51:00;12.45;;;6.80;;
3573;SDS011;1801;51.050;6.246;2023-02-28T03:53:37;13.82;;;7.38;;
3573;SDS011;1801;51.050;6.246;2023-02-28T03:56:17;25.45;;;7.97;;
3573;SDS011;1801;51.050;6.246;2023-02-28T04:03:36;14.50;;;6.57;;
3573;SDS011;1801;51.050;6.246;2023-02-28T04:06:02;12.23;;;7.67;;
3573;SDS011;1801;51.050;6.246;2023-02-28T04:08:27;9.37;;;6.50;;
3573;SDS011;1801;51.050;6.246;2023-02-28T04:10:55;16.00;;;6.80;;
3573;SDS011;1801;51.050;6.246;2023-02-28T04:13:21;13.35;;;7.38;;
3573;SDS011;1801;51.050;6.246;2023-02-28T04:15:46;10.23;;;6.50;;
3573;SDS011;1801;51.050;6.246;2023-02-28T04:18:12;30.17;;;8.00;;
3573;SDS011;1801;51.050;6.246;2023-02-28T04:20:37;9.90;;;6.50;;
3573;SDS011;1801;51.050;6.246;2023-02-28T04:23:02;16.23;;;7.03;;
3573;SDS011;1801;51.050;6.246;2023-02-28T04:25:27;14.00;;;7.20;;
3573;SDS011;1801;51.050;6.246;2023-02-28T04:27:53;13.13;;;6.27;;
3573;SDS011;1801;51.050;6.246;2023-02-28T04:30:18;12.20;;;6.97;;
3573;SDS011;1801;51.050;6.246;2023-02-28T04:32:43;11.27;;;5.93;;
3573;SDS011;1801;51.050;6.246;2023-02-28T04:35:08;15.20;;;6.90;;
3573;SDS011;1801;51.050;6.246;2023-02-28T04:37:34;12.13;;;7.17;;
3573;SDS011;1801;51.050;6.246;2023-02-28T04:40:01;15.55;;;7.43;;
3573;SDS011;1801;51.050;6.246;2023-02-28T04:42:27;14.93;;;7.45;;
3573;SDS011;1801;51.050;6.246;2023-02-28T04:45:00;13.10;;;7.13;;
3573;SDS011;1801;51.050;6.246;2023-02-28T04:47:25;17.20;;;7.30;;
3573;SDS011;1801;51.050;6.246;2023-02-28T04:49:50;11.67;;;7.13;;
3573;SDS011;1801;51.050;6.246;2023-02-28T04:52:15;11.40;;;6.70;;
3573;SDS011;1801;51.050;6.246;2023-02-28T04:54:40;14.03;;;7.17;;
3573;SDS011;1801;51.050;6.246;2023-02-28T04:57:06;15.43;;;6.87;;
3573;SDS011;1801;51.050;6.246;2023-02-28T04:59:31;8.50;;;6.00;;
3573;SDS011;1801;51.050;6.246;2023-02-28T05:01:56;14.90;;;6.37;;
3573;SDS011;1801;51.050;6.246;2023-02-28T05:04:21;13.50;;;6.13;;
3573;SDS011;1801;51.050;6.246;2023-02-28T05:06:46;9.20;;;6.60;;
3573;SDS011;1801;51.050;6.246;2023-02-28T05:09:12;10.30;;;6.30;;
3573;SDS011;1801;51.050;6.246;2023-02-28T05:11:37;12.23;;;6.33;;
3573;SDS011;1801;51.050;6.246;2023-02-28T05:14:04;24.73;;;7.25;;
3573;SDS011;1801;51.050;6.246;2023-02-28T05:16:29;16.00;;;6.55;;
3573;SDS011;1801;51.050;6.246;2023-02-28T05:18:55;12.97;;;6.10;;
3573;SDS011;1801;51.050;6.246;2023-02-28T05:23:45;16.63;;;6.60;;
3573;SDS011;1801;51.050;6.246;2023-02-28T05:26:10;12.23;;;6.10;;
3573;SDS011;1801;51.050;6.246;2023-02-28T05:28:35;11.17;;;6.27;;
3573;SDS011;1801;51.050;6.246;2023-02-28T05:31:01;12.50;;;6.00;;
3573;SDS011;1801;51.050;6.246;2023-02-28T05:33:26;14.97;;;6.83;;
3573;SDS011;1801;51.050;6.246;2023-02-28T05:35:51;10.60;;;6.03;;
3573;SDS011;1801;51.050;6.246;2023-02-28T05:38:16;9.73;;;5.77;;
3573;SDS011;1801;51.050;6.246;2023-02-28T05:40:42;12.60;;;6.75;;
3573;SDS011;1801;51.050;6.246;2023-02-28T05:43:09;12.17;;;5.93;;
3573;SDS011;1801;51.050;6.246;2023-02-28T05:45:35;14.23;;;4.95;;
3573;SDS011;1801;51.050;6.246;2023-02-28T05:48:00;10.77;;;4.60;;
3573;SDS011;1801;51.050;6.246;2023-02-28T05:50:25;11.50;;;5.67;;
3573;SDS011;1801;51.050;6.246;2023-02-28T05:52:52;9.23;;;5.97;;
3573;SDS011;1801;51.050;6.246;2023-02-28T05:55:17;10.15;;;5.50;;
3573;SDS011;1801;51.050;6.246;2023-02-28T05:57:43;9.80;;;4.97;;
3573;SDS011;1801;51.050;6.246;2023-02-28T06:00:08;7.13;;;4.90;;
3573;SDS011;1801;51.050;6.246;2023-02-28T06:02:34;12.20;;;5.20;;
3573;SDS011;1801;51.050;6.246;2023-02-28T06:04:59;10.20;;;6.40;;
3573;SDS011;1801;51.050;6.246;2023-02-28T06:07:24;7.77;;;5.63;;
3573;SDS011;1801;51.050;6.246;2023-02-28T06:09:49;7.77;;;5.80;;
3573;SDS011;1801;51.050;6.246;2023-02-28T06:12:15;10.77;;;5.97;;
3573;SDS011;1801;51.050;6.246;2023-02-28T06:14:40;6.30;;;4.47;;
3573;SDS011;1801;51.050;6.246;2023-02-28T06:17:05;10.07;;;6.20;;
3573;SDS011;1801;51.050;6.246;2023-02-28T06:19:31;8.37;;;4.77;;
3573;SDS011;1801;51.050;6.246;2023-02-28T06:21:56;15.10;;;5.00;;
3573;SDS011;1801;51.050;6.246;2023-02-28T06:24:22;7.50;;;5.40;;
3573;SDS011;1801;51.050;6.246;2023-02-28T06:26:48;10.93;;;5.43;;
3573;SDS011;1801;51.050;6.246;2023-02-28T06:29:14;9.67;;;5.20;;
3573;SDS011;1801;51.050;6.246;2023-02-28T06:31:43;12.63;;;5.65;;
3573;SDS011;1801;51.050;6.246;2023-02-28T06:34:09;10.33;;;4.27;;
3573;SDS011;1801;51.050;6.246;2023-02-28T06:36:36;11.70;;;4.82;;
3573;SDS011;1801;51.050;6.246;2023-02-28T06:39:01;11.60;;;4.77;;
3573;SDS011;1801;51.050;6.246;2023-02-28T06:41:26;8.17;;;5.03;;
3573;SDS011;1801;51.050;6.246;2023-02-28T06:43:52;7.97;;;5.30;;
3573;SDS011;1801;51.050;6.246;2023-02-28T06:46:18;10.07;;;5.47;;
3573;SDS011;1801;51.050;6.246;2023-02-28T06:48:43;11.80;;;6.10;;
3573;SDS011;1801;51.050;6.246;2023-02-28T06:51:10;8.43;;;5.20;;
3573;SDS011;1801;51.050;6.246;2023-02-28T06:53:35;10.38;;;6.20;;
3573;SDS011;1801;51.050;6.246;2023-02-28T06:56:04;11.27;;;6.05;;
3573;SDS011;1801;51.050;6.246;2023-02-28T06:58:30;7.82;;;5.30;;
3573;SDS011;1801;51.050;6.246;2023-02-28T07:00:55;9.97;;;6.17;;
3573;SDS011;1801;51.050;6.246;2023-02-28T07:03:21;9.40;;;5.50;;
3573;SDS011;1801;51.050;6.246;2023-02-28T07:05:46;8.07;;;5.30;;
3573;SDS011;1801;51.050;6.246;2023-02-28T07:08:11;14.43;;;5.97;;
3573;SDS011;1801;51.050;6.246;2023-02-28T07:10:37;13.27;;;5.13;;
3573;SDS011;1801;51.050;6.246;2023-02-28T07:13:03;10.10;;;5.03;;
3573;SDS011;1801;51.050;6.246;2023-02-28T07:15:28;8.83;;;5.40;;
3573;SDS011;1801;51.050;6.246;2023-02-28T07:17:54;6.03;;;4.83;;
3573;SDS011;1801;51.050;6.246;2023-02-28T07:20:19;7.30;;;4.33;;
3573;SDS011;1801;51.050;6.246;2023-02-28T07:22:44;10.07;;;5.67;;
3573;SDS011;1801;51.050;6.246;2023-02-28T07:25:09;9.90;;;4.37;;
3573;SDS011;1801;51.050;6.246;2023-02-28T07:27:35;10.50;;;5.90;;
3573;SDS011;1801;51.050;6.246;2023-02-28T07:30:00;11.10;;;4.70;;
3573;SDS011;1801;51.050;6.246;2023-02-28T07:32:28;7.30;;;4.80;;
3573;SDS011;1801;51.050;6.246;2023-02-28T07:34:54;8.33;;;5.33;;
3573;SDS011;1801;51.050;6.246;2023-02-28T07:37:19;7.23;;;4.83;;
3573;SDS011;1801;51.050;6.246;2023-02-28T07:39:44;6.20;;;4.43;;
3573;SDS011;1801;51.050;6.246;2023-02-28T07:42:10;10.33;;;4.93;;
3573;SDS011;1801;51.050;6.246;2023-02-28T07:44:37;12.90;;;5.13;;
3573;SDS011;1801;51.050;6.246;2023-02-28T07:47:05;7.47;;;4.90;;
3573;SDS011;1801;51.050;6.246;2023-02-28T07:49:30;9.20;;;5.70;;
3573;SDS011;1801;51.050;6.246;2023-02-28T07:51:57;6.13;;;4.45;;
3573;SDS011;1801;51.050;6.246;2023-02-28T07:54:22;7.53;;;4.27;;
3573;SDS011;1801;51.050;6.246;2023-02-28T07:56:47;8.90;;;4.90;;
3573;SDS011;1801;51.050;6.246;2023-02-28T07:59:12;9.40;;;4.90;;
3573;SDS011;1801;51.050;6.246;2023-02-28T08:01:37;8.17;;;5.10;;
3573;SDS011;1801;51.050;6.246;2023-02-28T08:04:03;9.33;;;4.83;;
3573;SDS011;1801;51.050;6.246;2023-02-28T08:06:28;9.93;;;4.43;;
3573;SDS011;1801;51.050;6.246;2023-02-28T08:08:53;9.67;;;5.37;;
3573;SDS011;1801;51.050;6.246;2023-02-28T08:11:19;5.43;;;4.20;;
3573;SDS011;1801;51.050;6.246;2023-02-28T08:13:44;14.60;;;5.67;;
3573;SDS011;1801;51.050;6.246;2023-02-28T08:16:10;7.87;;;5.67;;
3573;SDS011;1801;51.050;6.246;2023-02-28T08:18:36;6.97;;;4.18;;
3573;SDS011;1801;51.050;6.246;2023-02-28T08:21:07;7.73;;;4.17;;
3573;SDS011;1801;51.050;6.246;2023-02-28T08:23:33;9.07;;;4.15;;
3573;SDS011;1801;51.050;6.246;2023-02-28T08:25:58;12.40;;;4.10;;
3573;SDS011;1801;51.050;6.246;2023-02-28T08:28:23;13.60;;;4.40;;
3573;SDS011;1801;51.050;6.246;2023-02-28T08:30:49;7.70;;;3.30;;
3573;SDS011;1801;51.050;6.246;2023-02-28T08:33:14;7.60;;;3.93;;
3573;SDS011;1801;51.050;6.246;2023-02-28T08:35:39;6.60;;;3.97;;
3573;SDS011;1801;51.050;6.246;2023-02-28T08:38:04;4.93;;;3.87;;
3573;SDS011;1801;51.050;6.246;2023-02-28T08:40:29;5.10;;;3.53;;
3573;SDS011;1801;51.050;6.246;2023-02-28T08:42:55;8.57;;;4.33;;
3573;SDS011;1801;51.050;6.246;2023-02-28T08:45:20;5.53;;;4.00;;
3573;SDS011;1801;51.050;6.246;2023-02-28T08:47:45;6.70;;;3.87;;
3573;SDS011;1801;51.050;6.246;2023-02-28T08:50:10;5.10;;;2.87;;
3573;SDS011;1801;51.050;6.246;2023-02-28T08:52:35;10.80;;;3.53;;
3573;SDS011;1801;51.050;6.246;2023-02-28T08:55:01;7.10;;;4.30;;
3573;SDS011;1801;51.050;6.246;2023-02-28T08:57:26;8.50;;;4.43;;
3573;SDS011;1801;51.050;6.246;2023-02-28T08:59:52;5.50;;;3.95;;
3573;SDS011;1801;51.050;6.246;2023-02-28T09:02:17;9.30;;;3.33;;
3573;SDS011;1801;51.050;6.246;2023-02-28T09:04:42;10.73;;;3.40;;
3573;SDS011;1801;51.050;6.246;2023-02-28T09:07:10;4.60;;;2.90;;
3573;SDS011;1801;51.050;6.246;2023-02-28T09:09:35;4.50;;;3.33;;
3573;SDS011;1801;51.050;6.246;2023-02-28T09:12:01;2.93;;;2.73;;
3573;SDS011;1801;51.050;6.246;2023-02-28T09:14:26;3.43;;;3.00;;
3573;SDS011;1801;51.050;6.246;2023-02-28T09:16:52;4.37;;;2.77;;
3573;SDS011;1801;51.050;6.246;2023-02-28T09:19:17;4.93;;;3.10;;
3573;SDS011;1801;51.050;6.246;2023-02-28T09:21:42;4.60;;;3.40;;
3573;SDS011;1801;51.050;6.246;2023-02-28T09:24:07;5.80;;;3.43;;
3573;SDS011;1801;51.050;6.246;2023-02-28T09:26:33;3.60;;;2.90;;
3573;SDS011;1801;51.050;6.246;2023-02-28T09:28:59;5.63;;;2.92;;
3573;SDS011;1801;51.050;6.246;2023-02-28T09:31:25;4.40;;;2.20;;
3573;SDS011;1801;51.050;6.246;2023-02-28T09:33:51;3.60;;;2.20;;
3573;SDS011;1801;51.050;6.246;2023-02-28T09:36:17;2.78;;;2.15;;
3573;SDS011;1801;51.050;6.246;2023-02-28T09:38:42;2.90;;;1.80;;
3573;SDS011;1801;51.050;6.246;2023-02-28T09:41:21;4.27;;;2.30;;
3573;SDS011;1801;51.050;6.246;2023-02-28T09:43:49;7.55;;;3.20;;
3573;SDS011;1801;51.050;6.246;2023-02-28T09:46:22;10.70;;;2.20;;
3573;SDS011;1801;51.050;6.246;2023-02-28T09:48:50;3.83;;;2.55;;
3573;SDS011;1801;51.050;6.246;2023-02-28T09:54:00;1.70;;;1.60;;
3573;SDS011;1801;51.050;6.246;2023-02-28T09:56:44;3.00;;;1.70;;
3573;SDS011;1801;51.050;6.246;2023-02-28T09:59:17;5.68;;;1.65;;
3573;SDS011;1801;51.050;6.246;2023-02-28T10:01:55;4.17;;;2.17;;
3573;SDS011;1801;51.050;6.246;2023-02-28T10:07:17;7.10;;;2.17;;
3573;SDS011;1801;51.050;6.246;2023-02-28T10:09:44;2.73;;;1.80;;
3573;SDS011;1801;51.050;6.246;2023-02-28T10:12:10;3.90;;;2.43;;
3573;SDS011;1801;51.050;6.246;2023-02-28T10:14:36;7.73;;;2.10;;
3573;SDS011;1801;51.050;6.246;2023-02-28T10:17:04;2.40;;;1.93;;
3573;SDS011;1801;51.050;6.246;2023-02-28T10:20:15;1.57;;;1.47;;
3573;SDS011;1801;51.050;6.246;2023-02-28T10:22:22;3.77;;;1.50;;
3573;SDS011;1801;51.050;6.246;2023-02-28T10:24:51;3.23;;;1.77;;
3573;SDS011;1801;51.050;6.246;2023-02-28T10:27:17;2.00;;;1.67;;
3573;SDS011;1801;51.050;6.246;2023-02-28T10:29:44;2.40;;;1.33;;
3573;SDS011;1801;51.050;6.246;2023-02-28T10:32:10;3.40;;;2.00;;
3573;SDS011;1801;51.050;6.246;2023-02-28T10:34:37;3.57;;;1.90;;
3573;SDS011;1801;51.050;6.246;2023-02-28T10:37:03;2.00;;;1.50;;
3573;SDS011;1801;51.050;6.246;2023-02-28T10:39:36;3.37;;;1.80;;
3573;SDS011;1801;51.050;6.246;2023-02-28T10:42:02;2.37;;;1.80;;
3573;SDS011;1801;51.050;6.246;2023-02-28T10:44:27;1.80;;;1.70;;
3573;SDS011;1801;51.050;6.246;2023-02-28T10:46:52;8.63;;;1.67;;
3573;SDS011;1801;51.050;6.246;2023-02-28T10:49:36;2.40;;;1.60;;
3573;SDS011;1801;51.050;6.246;2023-02-28T10:52:04;4.13;;;2.43;;
3573;SDS011;1801;51.050;6.246;2023-02-28T10:54:30;2.30;;;1.93;;
3573;SDS011;1801;51.050;6.246;2023-02-28T10:57:13;2.47;;;1.97;;
3573;SDS011;1801;51.050;6.246;2023-02-28T10:59:39;6.07;;;2.33;;
3573;SDS011;1801;51.050;6.246;2023-02-28T11:02:28;3.80;;;2.00;;
3573;SDS011;1801;51.050;6.246;2023-02-28T11:04:50;3.50;;;2.10;;
3573;SDS011;1801;51.050;6.246;2023-02-28T11:09:41;6.30;;;2.50;;
3573;SDS011;1801;51.050;6.246;2023-02-28T11:12:18;4.17;;;2.37;;
3573;SDS011;1801;51.050;6.246;2023-02-28T11:14:51;2.40;;;2.20;;
3573;SDS011;1801;51.050;6.246;2023-02-28T11:17:21;5.00;;;2.60;;
3573;SDS011;1801;51.050;6.246;2023-02-28T11:19:48;2.10;;;1.90;;
3573;SDS011;1801;51.050;6.246;2023-02-28T11:22:18;4.20;;;2.10;;
3573;SDS011;1801;51.050;6.246;2023-02-28T11:24:44;3.73;;;2.60;;
3573;SDS011;1801;51.050;6.246;2023-02-28T11:27:56;2.60;;;2.40;;
3573;SDS011;1801;51.050;6.246;2023-02-28T11:29:56;5.23;;;2.50;;
3573;SDS011;1801;51.050;6.246;2023-02-28T11:32:22;3.20;;;2.70;;
3573;SDS011;1801;51.050;6.246;2023-02-28T11:35:00;4.83;;;2.97;;
3573;SDS011;1801;51.050;6.246;2023-02-28T11:37:27;3.37;;;3.10;;
3573;SDS011;1801;51.050;6.246;2023-02-28T11:39:53;6.93;;;2.73;;
3573;SDS011;1801;51.050;6.246;2023-02-28T11:47:47;5.07;;;2.70;;
3573;SDS011;1801;51.050;6.246;2023-02-28T11:52:52;3.60;;;2.97;;
3573;SDS011;1801;51.050;6.246;2023-02-28T11:55:24;3.40;;;2.27;;
3573;SDS011;1801;51.050;6.246;2023-02-28T11:57:56;3.73;;;2.53;;
3573;SDS011;1801;51.050;6.246;2023-02-28T12:03:08;3.00;;;2.63;;
3573;SDS011;1801;51.050;6.246;2023-02-28T12:13:18;4.00;;;2.40;;
3573;SDS011;1801;51.050;6.246;2023-02-28T12:15:55;3.03;;;2.40;;
3573;SDS011;1801;51.050;6.246;2023-02-28T12:23:42;4.80;;;2.63;;
3573;SDS011;1801;51.050;6.246;2023-02-28T12:28:44;3.87;;;2.10;;
3573;SDS011;1801;51.050;6.246;2023-02-28T12:33:38;5.85;;;2.08;;
3573;SDS011;1801;51.050;6.246;2023-02-28T12:36:10;2.90;;;2.70;;
3573;SDS011;1801;51.050;6.246;2023-02-28T12:38:47;3.17;;;2.20;;
3573;SDS011;1801;51.050;6.246;2023-02-28T12:41:15;3.50;;;2.07;;
3573;SDS011;1801;51.050;6.246;2023-02-28T12:43:46;5.40;;;2.87;;
3573;SDS011;1801;51.050;6.246;2023-02-28T12:46:14;6.30;;;3.10;;
3573;SDS011;1801;51.050;6.246;2023-02-28T12:48:44;4.90;;;2.67;;
3573;SDS011;1801;51.050;6.246;2023-02-28T12:51:11;5.37;;;2.40;;
3573;SDS011;1801;51.050;6.246;2023-02-28T12:58:33;3.80;;;2.53;;
3573;SDS011;1801;51.050;6.246;2023-02-28T13:03:48;3.60;;;2.40;;
3573;SDS011;1801;51.050;6.246;2023-02-28T13:11:23;3.20;;;2.60;;
3573;SDS011;1801;51.050;6.246;2023-02-28T13:13:48;3.33;;;2.53;;
3573;SDS011;1801;51.050;6.246;2023-02-28T13:16:21;4.23;;;3.20;;
3573;SDS011;1801;51.050;6.246;2023-02-28T13:18:46;2.70;;;2.50;;
3573;SDS011;1801;51.050;6.246;2023-02-28T13:21:22;2.80;;;2.60;;
3573;SDS011;1801;51.050;6.246;2023-02-28T13:34:30;4.53;;;2.90;;
3573;SDS011;1801;51.050;6.246;2023-02-28T13:55:26;5.20;;;3.57;;
3573;SDS011;1801;51.050;6.246;2023-02-28T13:58:04;8.80;;;2.43;;
3573;SDS011;1801;51.050;6.246;2023-02-28T14:11:33;5.27;;;3.10;;
3573;SDS011;1801;51.050;6.246;2023-02-28T14:13:58;8.63;;;3.57;;
3573;SDS011;1801;51.050;6.246;2023-02-28T14:16:25;4.63;;;3.47;;
3573;SDS011;1801;51.050;6.246;2023-02-28T14:21:21;3.28;;;3.00;;
3573;SDS011;1801;51.050;6.246;2023-02-28T14:29:28;3.60;;;3.13;;
3573;SDS011;1801;51.050;6.246;2023-02-28T14:31:58;4.97;;;3.00;;
3573;SDS011;1801;51.050;6.246;2023-02-28T14:36:51;5.83;;;3.33;;
3573;SDS011;1801;51.050;6.246;2023-02-28T14:39:24;4.37;;;2.80;;
3573;SDS011;1801;51.050;6.246;2023-02-28T14:41:50;3.40;;;3.10;;
3573;SDS011;1801;51.050;6.246;2023-02-28T14:46:43;3.30;;;2.93;;
3573;SDS011;1801;51.050;6.246;2023-02-28T14:49:13;4.80;;;2.53;;
3573;SDS011;1801;51.050;6.246;2023-02-28T14:51:40;4.70;;;2.90;;
3573;SDS011;1801;51.050;6.246;2023-02-28T14:54:05;3.73;;;3.20;;
3573;SDS011;1801;51.050;6.246;2023-02-28T14:56:39;4.53;;;3.20;;
3573;SDS011;1801;51.050;6.246;2023-02-28T14:59:05;7.20;;;3.30;;
3573;SDS011;1801;51.050;6.246;2023-02-28T15:01:30;3.77;;;3.20;;
3573;SDS011;1801;51.050;6.246;2023-02-28T15:04:01;2.90;;;2.70;;
3573;SDS011;1801;51.050;6.246;2023-02-28T15:06:27;5.47;;;2.80;;
3573;SDS011;1801;51.050;6.246;2023-02-28T15:11:48;3.23;;;2.90;;
3573;SDS011;1801;51.050;6.246;2023-02-28T15:14:15;6.80;;;3.30;;
3573;SDS011;1801;51.050;6.246;2023-02-28T15:16:42;8.70;;;3.23;;
3573;SDS011;1801;51.050;6.246;2023-02-28T15:19:25;5.20;;;3.00;;
3573;SDS011;1801;51.050;6.246;2023-02-28T15:22:34;3.60;;;3.30;;
3573;SDS011;1801;51.050;6.246;2023-02-28T15:24:42;4.00;;;3.20;;
3573;SDS011;1801;51.050;6.246;2023-02-28T15:27:12;3.50;;;2.70;;
3573;SDS011;1801;51.050;6.246;2023-02-28T15:29:43;2.90;;;2.70;;
3573;SDS011;1801;51.050;6.246;2023-02-28T15:32:20;3.77;;;3.10;;
3573;SDS011;1801;51.050;6.246;2023-02-28T15:34:46;3.40;;;2.87;;
3573;SDS011;1801;51.050;6.246;2023-02-28T15:37:25;5.50;;;3.43;;
3573;SDS011;1801;51.050;6.246;2023-02-28T15:39:52;3.93;;;3.03;;
3573;SDS011;1801;51.050;6.246;2023-02-28T15:42:19;3.87;;;2.80;;
3573;SDS011;1801;51.050;6.246;2023-02-28T15:44:44;3.17;;;2.90;;
3573;SDS011;1801;51.050;6.246;2023-02-28T15:47:44;4.50;;;3.13;;
3573;SDS011;1801;51.050;6.246;2023-02-28T15:50:04;6.03;;;3.00;;
3573;SDS011;1801;51.050;6.246;2023-02-28T15:52:39;6.53;;;3.10;;
3573;SDS011;1801;51.050;6.246;2023-02-28T15:57:38;3.73;;;2.90;;
3573;SDS011;1801;51.050;6.246;2023-02-28T16:00:04;5.20;;;3.03;;
3573;SDS011;1801;51.050;6.246;2023-02-28T16:02:34;3.93;;;3.00;;
3573;SDS011;1801;51.050;6.246;2023-02-28T16:05:01;7.00;;;3.10;;
3573;SDS011;1801;51.050;6.246;2023-02-28T16:07:27;4.97;;;3.20;;
3573;SDS011;1801;51.050;6.246;2023-02-28T16:09:52;4.50;;;3.13;;
3573;SDS011;1801;51.050;6.246;2023-02-28T16:12:18;5.30;;;3.60;;
3573;SDS011;1801;51.050;6.246;2023-02-28T16:14:44;7.10;;;3.57;;
3573;SDS011;1801;51.050;6.246;2023-02-28T16:17:19;4.20;;;3.47;;
3573;SDS011;1801;51.050;6.246;2023-02-28T16:19:45;4.77;;;3.17;;
3573;SDS011;1801;51.050;6.246;2023-02-28T16:22:10;4.37;;;3.97;;
3573;SDS011;1801;51.050;6.246;2023-02-28T16:24:35;7.33;;;3.43;;
3573;SDS011;1801;51.050;6.246;2023-02-28T16:27:01;5.60;;;3.33;;
3573;SDS011;1801;51.050;6.246;2023-02-28T16:29:32;5.13;;;3.30;;
3573;SDS011;1801;51.050;6.246;2023-02-28T16:31:58;4.90;;;3.17;;
3573;SDS011;1801;51.050;6.246;2023-02-28T16:34:24;5.50;;;3.43;;
3573;SDS011;1801;51.050;6.246;2023-02-28T16:36:49;4.07;;;3.00;;
3573;SDS011;1801;51.050;6.246;2023-02-28T16:39:15;3.47;;;3.10;;
3573;SDS011;1801;51.050;6.246;2023-02-28T16:41:44;3.60;;;3.30;;
3573;SDS011;1801;51.050;6.246;2023-02-28T16:44:10;7.97;;;3.40;;
3573;SDS011;1801;51.050;6.246;2023-02-28T16:46:37;6.73;;;3.87;;
3573;SDS011;1801;51.050;6.246;2023-02-28T16:49:02;6.27;;;3.40;;
3573;SDS011;1801;51.050;6.246;2023-02-28T16:51:27;4.77;;;3.83;;
3573;SDS011;1801;51.050;6.246;2023-02-28T16:53:53;9.70;;;4.20;;
3573;SDS011;1801;51.050;6.246;2023-02-28T16:56:19;4.93;;;3.23;;
3573;SDS011;1801;51.050;6.246;2023-02-28T16:58:45;9.13;;;4.17;;
3573;SDS011;1801;51.050;6.246;2023-02-28T17:01:10;8.77;;;3.83;;
3573;SDS011;1801;51.050;6.246;2023-02-28T17:03:36;5.40;;;3.63;;
3573;SDS011;1801;51.050;6.246;2023-02-28T17:06:02;5.23;;;3.60;;
3573;SDS011;1801;51.050;6.246;2023-02-28T17:08:27;7.90;;;3.90;;
3573;SDS011;1801;51.050;6.246;2023-02-28T17:10:54;5.37;;;3.83;;
3573;SDS011;1801;51.050;6.246;2023-02-28T17:13:19;6.50;;;4.10;;
3573;SDS011;1801;51.050;6.246;2023-02-28T17:15:44;6.90;;;4.50;;
3573;SDS011;1801;51.050;6.246;2023-02-28T17:18:13;5.37;;;4.47;;
3573;SDS011;1801;51.050;6.246;2023-02-28T17:20:39;4.87;;;3.83;;
3573;SDS011;1801;51.050;6.246;2023-02-28T17:23:07;7.57;;;4.37;;
3573;SDS011;1801;51.050;6.246;2023-02-28T17:25:32;5.50;;;4.20;;
3573;SDS011;1801;51.050;6.246;2023-02-28T17:27:57;6.03;;;3.40;;
3573;SDS011;1801;51.050;6.246;2023-02-28T17:30:24;5.80;;;4.30;;